Time;durP1;ratioP1;P1;durP2;ratioP2;P2;SDS_P1;SDS_P2;PMS_P1;PMS_P2;Temp;Humidity;BMP_temperature;BMP_pressure;BME280_temperature;BME280_humidity;BME280_pressure;Samples;Min_cycle;Max_cycle;Signal;HPM_P1;HPM_P2
2023/05/19 00:00:29;;;;;;;5.32;1.70;;;;;;;;;;601148;24;1218;-73
2023/05/19 00:01:28;;;;;;;5.35;1.50;;;;;;;;;;599886;24;1217;-74
2023/05/19 00:01:47;;;;;;;4.53;1.35;;;;;;;;;;590655;24;1229;-72
2023/05/19 00:03:46;;;;;;;5.47;1.45;;;;;;;;;;587521;24;743;-74
2023/05/19 00:04:18;;;;;;;5.15;1.50;;;;;;;;;;586325;24;1198;-74
2023/05/19 00:04:39;;;;;;;6.15;1.52;;;;;;;;;;594323;24;1324;-73
2023/05/19 00:04:58;;;;;;;4.63;1.48;;;;;;;;;;593504;24;1111;-73
2023/05/19 00:05:34;;;;;;;5.45;1.70;;;;;;;;;;587262;24;1076;-74
2023/05/19 00:05:56;;;;;;;4.20;1.52;;;;;;;;;;588509;24;1398;-73
2023/05/19 00:06:19;;;;;;;4.53;1.60;;;;;;;;;;583013;24;869;-74
2023/05/19 00:06:45;;;;;;;6.55;1.63;;;;;;;;;;583796;24;1055;-73
2023/05/19 00:07:18;;;;;;;4.90;1.52;;;;;;;;;;586262;24;925;-75
2023/05/19 00:07:49;;;;;;;5.68;1.50;;;;;;;;;;584076;24;850;-75
2023/05/19 00:08:18;;;;;;;5.40;1.50;;;;;;;;;;581613;24;1637;-73
2023/05/19 00:08:34;;;;;;;5.43;1.60;;;;;;;;;;587516;24;1113;-73
2023/05/19 00:09:00;;;;;;;4.10;1.50;;;;;;;;;;594082;24;920;-73
2023/05/19 00:09:19;;;;;;;4.35;1.40;;;;;;;;;;585053;24;1190;-73
2023/05/19 00:09:37;;;;;;;4.75;1.40;;;;;;;;;;591563;24;1287;-73
2023/05/19 00:09:56;;;;;;;3.92;1.23;;;;;;;;;;594305;24;1166;-74
2023/05/19 00:10:17;;;;;;;5.15;1.42;;;;;;;;;;590436;24;862;-73
2023/05/19 00:10:33;;;;;;;4.97;1.60;;;;;;;;;;596695;24;1112;-74
2023/05/19 00:11:00;;;;;;;4.88;1.58;;;;;;;;;;593446;24;1312;-74
2023/05/19 00:11:16;;;;;;;3.83;1.40;;;;;;;;;;588020;24;1430;-73
2023/05/19 00:11:35;;;;;;;4.05;1.40;;;;;;;;;;596577;24;948;-73
2023/05/19 00:11:51;;;;;;;5.03;1.40;;;;;;;;;;590792;24;1193;-73
2023/05/19 00:12:36;;;;;;;4.50;1.42;;;;;;;;;;591736;24;1100;-73
2023/05/19 00:12:57;;;;;;;4.13;1.35;;;;;;;;;;584870;24;1055;-74
2023/05/19 00:13:25;;;;;;;4.93;1.50;;;;;;;;;;587286;24;893;-74
2023/05/19 00:13:41;;;;;;;4.57;1.50;;;;;;;;;;590554;24;1364;-74
2023/05/19 00:14:01;;;;;;;5.20;1.50;;;;;;;;;;592383;24;889;-74
2023/05/19 00:14:17;;;;;;;4.97;1.50;;;;;;;;;;583724;24;1050;-73
2023/05/19 00:14:33;;;;;;;5.00;1.50;;;;;;;;;;585289;24;1328;-74
2023/05/19 00:15:01;;;;;;;5.78;1.60;;;;;;;;;;592369;24;1114;-73
2023/05/19 00:15:22;;;;;;;6.78;1.52;;;;;;;;;;583270;24;1235;-73
2023/05/19 00:15:44;;;;;;;5.13;1.58;;;;;;;;;;592421;24;1083;-74
2023/05/19 00:16:28;;;;;;;6.28;1.40;;;;;;;;;;603017;24;1003;-73
2023/05/19 00:16:43;;;;;;;3.78;1.38;;;;;;;;;;602909;23;1160;-74
2023/05/19 00:17:13;;;;;;;6.38;1.50;;;;;;;;;;606911;23;1266;-73
2023/05/19 00:17:28;;;;;;;4.30;1.48;;;;;;;;;;606147;23;777;-73
2023/05/19 00:17:47;;;;;;;5.00;1.67;;;;;;;;;;608048;23;1320;-73
2023/05/19 00:18:19;;;;;;;4.93;1.45;;;;;;;;;;608939;23;1017;-73
2023/05/19 00:18:39;;;;;;;5.10;1.58;;;;;;;;;;610058;23;1235;-73
2023/05/19 00:18:59;;;;;;;4.47;1.30;;;;;;;;;;609095;23;1074;-74
2023/05/19 00:19:23;;;;;;;5.53;1.52;;;;;;;;;;597056;23;1194;-75
2023/05/19 00:19:47;;;;;;;5.15;1.70;;;;;;;;;;605420;24;1185;-73
2023/05/19 00:22:33;;;;;;;5.03;1.67;;;;;;;;;;598362;24;1087;-74
2023/05/19 00:22:52;;;;;;;4.88;1.67;;;;;;;;;;587480;24;1298;-74
2023/05/19 00:23:16;;;;;;;5.18;1.60;;;;;;;;;;585409;24;1335;-75
2023/05/19 00:24:00;;;;;;;6.35;1.60;;;;;;;;;;586420;24;1963;-74
2023/05/19 00:24:24;;;;;;;5.22;1.65;;;;;;;;;;591074;24;875;-74
2023/05/19 00:24:49;;;;;;;6.55;1.77;;;;;;;;;;601221;24;1213;-74
2023/05/19 00:25:17;;;;;;;6.22;1.63;;;;;;;;;;602329;24;876;-74
2023/05/19 00:25:35;;;;;;;4.88;1.45;;;;;;;;;;604706;24;1051;-73
2023/05/19 00:25:53;;;;;;;4.68;1.58;;;;;;;;;;599782;24;828;-73
2023/05/19 00:26:15;;;;;;;4.30;1.50;;;;;;;;;;600057;24;857;-74
2023/05/19 00:26:40;;;;;;;4.00;1.40;;;;;;;;;;599978;24;1189;-74
2023/05/19 00:27:12;;;;;;;;;;;;;;;;;;;;;
2023/05/19 00:28:01;;;;;;;3.80;1.55;;;;;;;;;;594549;24;803;-73
2023/05/19 00:28:16;;;;;;;6.22;1.80;;;;;;;;;;588773;24;1366;-74
2023/05/19 00:28:32;;;;;;;5.83;1.80;;;;;;;;;;596885;24;885;-73
2023/05/19 00:28:57;;;;;;;5.30;1.70;;;;;;;;;;600470;24;747;-74
2023/05/19 00:29:17;;;;;;;4.65;1.60;;;;;;;;;;593965;24;924;-73
2023/05/19 00:29:36;;;;;;;4.43;1.60;;;;;;;;;;598105;24;1415;-74
2023/05/19 00:29:55;;;;;;;4.13;1.63;;;;;;;;;;597231;24;1337;-73
2023/05/19 00:30:16;;;;;;;4.35;1.60;;;;;;;;;;595826;24;892;-74
2023/05/19 00:30:40;;;;;;;3.97;1.48;;;;;;;;;;598688;24;1165;-73
2023/05/19 00:31:17;;;;;;;5.97;1.60;;;;;;;;;;602780;24;917;-74
2023/05/19 00:31:32;;;;;;;5.80;1.60;;;;;;;;;;605094;24;1081;-74
2023/05/19 00:31:48;;;;;;;4.88;1.60;;;;;;;;;;600934;24;1299;-74
2023/05/19 00:32:44;;;;;;;4.65;1.38;;;;;;;;;;597299;24;1271;-74
2023/05/19 00:33:10;;;;;;;;;;;;;;;;;;;;;
2023/05/19 00:33:27;;;;;;;5.80;1.55;;;;;;;;;;592189;24;1150;-73
2023/05/19 00:33:43;;;;;;;5.25;1.55;;;;;;;;;;591946;24;1469;-73
2023/05/19 00:34:02;;;;;;;4.05;1.50;;;;;;;;;;587957;24;1363;-73
2023/05/19 00:34:18;;;;;;;4.10;1.50;;;;;;;;;;588205;24;862;-74
2023/05/19 00:34:47;;;;;;;;;;;;;;;;;;;;;
2023/05/19 00:35:26;;;;;;;4.82;1.60;;;;;;;;;;591092;24;897;-74
2023/05/19 00:35:42;;;;;;;5.55;1.60;;;;;;;;;;582182;24;1039;-73
2023/05/19 00:36:16;;;;;;;5.25;1.67;;;;;;;;;;584089;24;1129;-73
2023/05/19 00:36:32;;;;;;;5.68;1.60;;;;;;;;;;582710;24;839;-73
2023/05/19 00:37:22;;;;;;;5.50;1.50;;;;;;;;;;593463;24;1042;-73
2023/05/19 00:37:47;;;;;;;4.22;1.40;;;;;;;;;;586694;24;1402;-73
2023/05/19 00:38:18;;;;;;;3.88;1.40;;;;;;;;;;588164;24;1256;-73
2023/05/19 00:38:38;;;;;;;4.47;1.40;;;;;;;;;;595597;24;1091;-72
2023/05/19 00:39:50;;;;;;;3.53;1.40;;;;;;;;;;594489;24;1331;-72
2023/05/19 00:40:20;;;;;;;3.70;1.30;;;;;;;;;;585912;24;2076;-72
2023/05/19 00:40:39;;;;;;;5.75;1.50;;;;;;;;;;592282;24;1210;-74
2023/05/19 00:40:55;;;;;;;5.05;1.40;;;;;;;;;;598455;24;1214;-73
2023/05/19 00:41:40;;;;;;;5.13;1.50;;;;;;;;;;591935;24;1156;-74
2023/05/19 00:41:59;;;;;;;4.82;1.50;;;;;;;;;;600041;24;1539;-73
2023/05/19 00:42:22;;;;;;;4.82;1.60;;;;;;;;;;591993;24;1465;-74
2023/05/19 00:42:41;;;;;;;4.63;1.73;;;;;;;;;;596374;24;1265;-73
2023/05/19 00:43:00;;;;;;;4.80;1.55;;;;;;;;;;594186;24;1183;-73
2023/05/19 00:43:16;;;;;;;4.47;1.38;;;;;;;;;;592904;24;1310;-73
2023/05/19 00:43:34;;;;;;;4.88;1.60;;;;;;;;;;594857;24;1963;-74
2023/05/19 00:43:50;;;;;;;5.75;1.75;;;;;;;;;;597608;24;1284;-74
2023/05/19 00:44:12;;;;;;;5.90;1.67;;;;;;;;;;596191;24;1109;-73
2023/05/19 00:44:31;;;;;;;5.95;1.58;;;;;;;;;;597189;24;747;-74
2023/05/19 00:45:34;;;;;;;4.88;1.50;;;;;;;;;;599110;24;765;-74
2023/05/19 00:45:38;;;;;;;4.82;1.45;;;;;;;;;;598635;24;1307;-74
2023/05/19 00:45:50;;;;;;;4.57;1.60;;;;;;;;;;601111;24;1086;-73
2023/05/19 00:46:18;;;;;;;5.05;1.50;;;;;;;;;;597977;24;1041;-74
2023/05/19 00:46:34;;;;;;;4.22;1.50;;;;;;;;;;601755;24;1417;-73
2023/05/19 00:46:56;;;;;;;4.65;1.50;;;;;;;;;;602303;24;1439;-73
2023/05/19 00:47:17;;;;;;;6.35;1.80;;;;;;;;;;589803;24;1193;-74
2023/05/19 00:47:36;;;;;;;5.70;1.55;;;;;;;;;;598005;24;1272;-74
2023/05/19 00:47:52;;;;;;;5.15;1.52;;;;;;;;;;597674;24;882;-73
2023/05/19 00:48:34;;;;;;;5.43;1.50;;;;;;;;;;593164;24;1210;-74
2023/05/19 00:48:50;;;;;;;4.25;1.40;;;;;;;;;;599331;24;1214;-72
2023/05/19 00:49:09;;;;;;;3.75;1.50;;;;;;;;;;598158;24;990;-74
2023/05/19 00:49:40;;;;;;;4.05;1.48;;;;;;;;;;599686;24;1383;-73
2023/05/19 00:50:14;;;;;;;4.90;1.30;;;;;;;;;;598155;24;1252;-75
2023/05/19 00:50:53;;;;;;;5.03;1.42;;;;;;;;;;596934;24;1415;-74
2023/05/19 00:51:15;;;;;;;5.75;1.80;;;;;;;;;;596710;24;1260;-73
2023/05/19 00:51:49;;;;;;;4.90;1.63;;;;;;;;;;597198;24;917;-74
2023/05/19 00:52:19;;;;;;;5.28;1.60;;;;;;;;;;598516;24;1144;-73
2023/05/19 00:52:38;;;;;;;4.50;1.35;;;;;;;;;;601127;24;1189;-73
2023/05/19 00:52:55;;;;;;;4.53;1.50;;;;;;;;;;598114;24;1228;-74
2023/05/19 00:53:18;;;;;;;4.47;1.50;;;;;;;;;;588702;24;829;-74
2023/05/19 00:53:34;;;;;;;5.38;1.50;;;;;;;;;;590447;24;1211;-74
2023/05/19 00:53:50;;;;;;;4.78;1.40;;;;;;;;;;595864;24;1020;-73
2023/05/19 00:54:41;;;;;;;3.97;1.20;;;;;;;;;;591640;24;865;-74
2023/05/19 00:54:58;;;;;;;4.80;1.40;;;;;;;;;;597918;24;1251;-73
2023/05/19 00:55:32;;;;;;;4.72;1.50;;;;;;;;;;591064;24;1223;-74
2023/05/19 00:55:51;;;;;;;6.47;1.70;;;;;;;;;;596877;24;1177;-74
2023/05/19 00:56:16;;;;;;;5.40;1.60;;;;;;;;;;599143;24;838;-74
2023/05/19 00:56:32;;;;;;;4.75;1.52;;;;;;;;;;599147;24;1338;-74
2023/05/19 00:56:52;;;;;;;7.40;1.58;;;;;;;;;;595335;24;1425;-73
2023/05/19 00:57:19;;;;;;;5.78;1.42;;;;;;;;;;592134;24;873;-75
2023/05/19 00:57:35;;;;;;;5.03;1.60;;;;;;;;;;599474;24;1036;-74
2023/05/19 00:58:00;;;;;;;3.85;1.42;;;;;;;;;;598623;24;1152;-74
2023/05/19 00:58:24;;;;;;;3.55;1.25;;;;;;;;;;591610;24;1041;-75
2023/05/19 00:58:44;;;;;;;5.57;1.38;;;;;;;;;;595177;24;1987;-75
2023/05/19 00:58:59;;;;;;;6.00;1.45;;;;;;;;;;595548;24;861;-74
2023/05/19 00:59:41;;;;;;;6.00;1.40;;;;;;;;;;588461;24;1508;-74
2023/05/19 01:00:00;;;;;;;4.32;1.60;;;;;;;;;;595976;24;1278;-75
2023/05/19 01:00:19;;;;;;;4.20;1.40;;;;;;;;;;589921;24;1418;-74
2023/05/19 01:00:35;;;;;;;4.63;1.30;;;;;;;;;;599939;24;898;-74
2023/05/19 01:00:54;;;;;;;5.68;1.63;;;;;;;;;;599842;24;821;-75
2023/05/19 01:01:20;;;;;;;4.07;1.42;;;;;;;;;;594020;24;902;-74
2023/05/19 01:01:36;;;;;;;3.40;1.30;;;;;;;;;;600610;24;916;-74
2023/05/19 01:02:33;;;;;;;4.55;1.50;;;;;;;;;;598766;24;1329;-73
2023/05/19 01:02:59;;;;;;;4.93;1.52;;;;;;;;;;603487;24;798;-74
2023/05/19 01:03:19;;;;;;;5.60;1.50;;;;;;;;;;596295;24;924;-74
2023/05/19 01:03:35;;;;;;;5.20;1.55;;;;;;;;;;604357;24;1967;-74
2023/05/19 01:04:00;;;;;;;4.90;1.50;;;;;;;;;;603690;24;1339;-75
2023/05/19 01:04:20;;;;;;;3.53;1.30;;;;;;;;;;594864;24;1301;-74
2023/05/19 01:04:38;;;;;;;4.30;1.50;;;;;;;;;;604684;24;1181;-73
2023/05/19 01:04:56;;;;;;;4.55;1.40;;;;;;;;;;603437;24;1137;-74
2023/05/19 01:05:22;;;;;;;4.72;1.40;;;;;;;;;;598566;24;1286;-75
2023/05/19 01:05:43;;;;;;;5.90;1.70;;;;;;;;;;602786;24;1501;-74
2023/05/19 01:06:13;;;;;;;5.00;1.67;;;;;;;;;;598393;24;1363;-75
2023/05/19 01:06:32;;;;;;;4.30;1.90;;;;;;;;;;597229;24;1453;-74
2023/05/19 01:07:11;;;;;;;4.03;1.90;;;;;;;;;;597454;24;853;-74
2023/05/19 01:07:36;;;;;;;4.65;1.83;;;;;;;;;;599495;24;1595;-74
2023/05/19 01:07:54;;;;;;;5.35;2.20;;;;;;;;;;599769;24;865;-74
2023/05/19 01:08:15;;;;;;;5.97;2.22;;;;;;;;;;599139;24;947;-74
2023/05/19 01:08:32;;;;;;;6.82;2.08;;;;;;;;;;601466;24;861;-74
2023/05/19 01:08:54;;;;;;;5.32;2.10;;;;;;;;;;598318;24;1273;-73
2023/05/19 01:09:25;;;;;;;5.88;2.20;;;;;;;;;;593119;24;1430;-74
2023/05/19 01:09:44;;;;;;;5.50;2.05;;;;;;;;;;597562;24;1264;-74
2023/05/19 01:10:13;;;;;;;5.25;2.10;;;;;;;;;;599163;24;881;-73
2023/05/19 01:10:35;;;;;;;5.70;1.60;;;;;;;;;;599701;24;921;-74
2023/05/19 01:10:54;;;;;;;5.97;1.90;;;;;;;;;;598462;24;1152;-73
2023/05/19 01:11:30;;;;;;;6.32;1.83;;;;;;;;;;596009;24;1276;-75
2023/05/19 01:11:54;;;;;;;5.25;2.15;;;;;;;;;;611437;23;1096;-73
2023/05/19 01:12:17;;;;;;;6.05;2.30;;;;;;;;;;607591;23;1286;-74
2023/05/19 01:12:34;;;;;;;5.97;2.22;;;;;;;;;;614377;23;863;-74
2023/05/19 01:12:53;;;;;;;5.80;2.38;;;;;;;;;;610044;23;1420;-74
2023/05/19 01:13:25;;;;;;;;;;;;;;;;;;;;;
2023/05/19 01:13:45;;;;;;;5.20;2.30;;;;;;;;;;606826;24;1124;-74
2023/05/19 01:14:27;;;;;;;;;;;;;;;;;;;;;
2023/05/19 01:17:04;;;;;;;7.90;3.08;;;;;;;;;;592754;23;1180;-75
2023/05/19 01:17:58;;;;;;;5.82;2.67;;;;;;;;;;604120;23;1149;-74
2023/05/19 01:18:27;;;;;;;5.45;2.30;;;;;;;;;;591837;24;1392;-74
2023/05/19 01:19:11;;;;;;;5.70;2.63;;;;;;;;;;607924;24;1225;-75
2023/05/19 01:20:06;;;;;;;5.30;2.35;;;;;;;;;;608209;23;1309;-74
2023/05/19 01:21:14;;;;;;;5.78;2.40;;;;;;;;;;608155;23;1472;-75
2023/05/19 01:22:21;;;;;;;5.65;2.40;;;;;;;;;;601926;24;1425;-73
2023/05/19 01:23:14;;;;;;;5.47;2.45;;;;;;;;;;604246;24;986;-74
2023/05/19 01:24:26;;;;;;;;;;;;;;;;;;;;;
2023/05/19 01:25:45;;;;;;;;;;;;;;;;;;;;;
2023/05/19 01:27:21;;;;;;;6.10;1.90;;;;;;;;;;610439;23;1036;-74
2023/05/19 01:27:36;;;;;;;6.07;1.70;;;;;;;;;;601554;24;793;-74
2023/05/19 01:28:37;;;;;;;3.83;1.60;;;;;;;;;;609587;23;1402;-75
2023/05/19 01:29:21;;;;;;;5.32;1.80;;;;;;;;;;604846;24;1300;-74
2023/05/19 01:30:10;;;;;;;4.63;1.60;;;;;;;;;;603675;24;1043;-74
2023/05/19 01:30:46;;;;;;;6.20;1.88;;;;;;;;;;606194;24;1142;-75
2023/05/19 01:31:21;;;;;;;6.32;2.17;;;;;;;;;;611055;23;1437;-75
2023/05/19 01:32:42;;;;;;;5.40;2.00;;;;;;;;;;603155;23;1370;-75
2023/05/19 01:33:20;;;;;;;5.70;2.00;;;;;;;;;;599582;24;1326;-74
2023/05/19 01:33:53;;;;;;;;;;;;;;;;;;;;;
2023/05/19 01:34:12;;;;;;;6.10;2.25;;;;;;;;;;620591;23;1090;-73
2023/05/19 01:34:52;;;;;;;4.72;1.90;;;;;;;;;;623239;23;931;-74
2023/05/19 01:35:48;;;;;;;5.57;2.00;;;;;;;;;;608573;23;1186;-75
2023/05/19 01:36:33;;;;;;;6.00;2.40;;;;;;;;;;607040;23;1484;-73
2023/05/19 01:37:18;;;;;;;5.03;2.30;;;;;;;;;;609344;23;1203;-73
2023/05/19 01:37:44;;;;;;;6.28;2.50;;;;;;;;;;597767;24;1400;-74
2023/05/19 01:38:35;;;;;;;6.38;2.42;;;;;;;;;;601577;24;827;-75
2023/05/19 01:39:01;;;;;;;6.07;2.10;;;;;;;;;;611005;23;993;-75
2023/05/19 01:39:26;;;;;;;5.60;2.20;;;;;;;;;;607319;23;1294;-74
2023/05/19 01:39:54;;;;;;;6.75;2.30;;;;;;;;;;616207;23;919;-74
2023/05/19 01:40:25;;;;;;;5.45;2.40;;;;;;;;;;608179;23;1441;-74
2023/05/19 01:40:49;;;;;;;5.53;2.45;;;;;;;;;;612383;23;1170;-74
2023/05/19 01:41:20;;;;;;;6.00;2.47;;;;;;;;;;609395;23;1195;-74
2023/05/19 01:42:18;;;;;;;5.25;2.10;;;;;;;;;;608683;23;832;-75
2023/05/19 01:42:45;;;;;;;6.47;2.20;;;;;;;;;;596510;24;1173;-74
2023/05/19 01:43:05;;;;;;;4.88;2.20;;;;;;;;;;609172;24;845;-75
2023/05/19 01:43:29;;;;;;;5.28;2.20;;;;;;;;;;610286;23;1237;-75
2023/05/19 01:43:57;;;;;;;6.22;2.30;;;;;;;;;;610374;23;1124;-75
2023/05/19 01:44:17;;;;;;;5.93;2.30;;;;;;;;;;609616;23;887;-74
2023/05/19 01:44:36;;;;;;;6.03;2.50;;;;;;;;;;615963;23;2000;-75
2023/05/19 01:46:21;;;;;;;5.70;2.30;;;;;;;;;;602354;24;813;-75
2023/05/19 01:46:40;;;;;;;6.32;2.30;;;;;;;;;;605626;24;1074;-75
2023/05/19 01:47:15;;;;;;;6.72;2.35;;;;;;;;;;607480;23;1187;-75
2023/05/19 01:48:22;;;;;;;6.20;2.40;;;;;;;;;;608491;23;1287;-75
2023/05/19 01:48:44;;;;;;;6.13;2.40;;;;;;;;;;604717;24;1460;-75
2023/05/19 01:49:03;;;;;;;5.70;2.35;;;;;;;;;;603660;24;1351;-75
2023/05/19 01:49:31;;;;;;;5.22;2.20;;;;;;;;;;602883;24;1182;-74
2023/05/19 01:50:10;;;;;;;6.20;2.30;;;;;;;;;;603020;24;1346;-75
2023/05/19 01:50:48;;;;;;;4.45;2.20;;;;;;;;;;596922;24;1360;-75
2023/05/19 01:51:16;;;;;;;5.90;2.35;;;;;;;;;;608356;24;865;-75
2023/05/19 01:51:41;;;;;;;6.38;2.28;;;;;;;;;;607008;24;1453;-74
2023/05/19 01:52:00;;;;;;;5.13;2.28;;;;;;;;;;607156;24;1370;-75
2023/05/19 01:52:30;;;;;;;5.20;2.30;;;;;;;;;;602535;23;852;-74
2023/05/19 01:53:21;;;;;;;5.80;2.38;;;;;;;;;;608723;23;1297;-74
2023/05/19 01:53:49;;;;;;;5.63;2.10;;;;;;;;;;609115;23;1176;-74
2023/05/19 01:54:38;;;;;;;;;;;;;;;;;;;;;
2023/05/19 01:54:53;;;;;;;5.05;2.25;;;;;;;;;;605876;23;1227;-74
2023/05/19 01:55:24;;;;;;;5.35;2.05;;;;;;;;;;602127;24;1326;-74
2023/05/19 01:56:01;;;;;;;3.67;2.10;;;;;;;;;;610153;23;850;-74
2023/05/19 01:56:42;;;;;;;5.13;2.20;;;;;;;;;;601204;24;1451;-74
2023/05/19 01:57:38;;;;;;;5.20;2.05;;;;;;;;;;606617;24;1411;-75
2023/05/19 01:58:21;;;;;;;6.55;2.17;;;;;;;;;;599227;24;1226;-74
2023/05/19 01:58:59;;;;;;;5.70;2.17;;;;;;;;;;598727;24;1301;-74
2023/05/19 01:59:56;;;;;;;6.47;2.85;;;;;;;;;;600464;24;1192;-74
2023/05/19 02:00:29;;;;;;;7.05;3.47;;;;;;;;;;603113;23;951;-75
2023/05/19 02:01:22;;;;;;;7.47;3.53;;;;;;;;;;606905;23;1294;-74
2023/05/19 02:02:23;;;;;;;7.77;3.50;;;;;;;;;;610469;23;845;-74
2023/05/19 02:02:54;;;;;;;7.20;3.22;;;;;;;;;;601050;24;1417;-77
2023/05/19 02:04:12;;;;;;;7.20;3.40;;;;;;;;;;599747;24;825;-74
2023/05/19 02:04:54;;;;;;;8.25;3.60;;;;;;;;;;600051;24;1380;-74
2023/05/19 02:05:33;;;;;;;6.90;3.83;;;;;;;;;;597406;24;1452;-76
2023/05/19 02:06:37;;;;;;;7.00;3.88;;;;;;;;;;603026;24;1251;-75
2023/05/19 02:07:23;;;;;;;5.80;3.70;;;;;;;;;;592925;24;873;-74
2023/05/19 02:08:16;;;;;;;9.05;4.15;;;;;;;;;;592349;24;1193;-74
2023/05/19 02:09:53;;;;;;;7.85;3.83;;;;;;;;;;590244;24;1437;-74
2023/05/19 02:10:02;;;;;;;6.80;3.85;;;;;;;;;;586167;24;1161;-74
2023/05/19 02:10:42;;;;;;;7.90;4.07;;;;;;;;;;579618;24;806;-74
2023/05/19 02:11:22;;;;;;;6.95;4.00;;;;;;;;;;587119;24;1224;-74
2023/05/19 02:12:01;;;;;;;7.07;3.70;;;;;;;;;;587973;24;1276;-74
2023/05/19 02:13:43;;;;;;;7.03;3.70;;;;;;;;;;575073;25;1093;-74
2023/05/19 02:14:39;;;;;;;6.90;3.47;;;;;;;;;;572509;25;1212;-74
2023/05/19 02:16:30;;;;;;;7.15;3.72;;;;;;;;;;575895;25;1318;-74
2023/05/19 02:16:49;;;;;;;7.32;3.90;;;;;;;;;;586935;24;1333;-74
2023/05/19 02:17:31;;;;;;;7.18;3.97;;;;;;;;;;587444;24;903;-75
2023/05/19 02:18:58;;;;;;;6.65;3.80;;;;;;;;;;585164;24;1380;-74
2023/05/19 02:19:23;;;;;;;7.68;3.90;;;;;;;;;;589914;24;1306;-78
2023/05/19 02:20:07;;;;;;;6.18;3.80;;;;;;;;;;591942;24;1245;-75
2023/05/19 02:23:23;;;;;;;5.68;3.33;;;;;;;;;;575368;25;1209;-74
2023/05/19 02:23:51;;;;;;;5.38;2.75;;;;;;;;;;563711;25;1954;-75
2023/05/19 02:24:36;;;;;;;5.97;2.60;;;;;;;;;;574308;25;1092;-75
2023/05/19 02:24:58;;;;;;;6.80;2.40;;;;;;;;;;577711;25;1221;-74
2023/05/19 02:25:23;;;;;;;6.72;2.30;;;;;;;;;;571973;25;1288;-74
2023/05/19 02:25:49;;;;;;;4.18;2.20;;;;;;;;;;575051;25;2173;-74
2023/05/19 02:26:23;;;;;;;5.28;2.63;;;;;;;;;;574801;25;938;-73
2023/05/19 02:26:54;;;;;;;;;;;;;;;;;;;;;
2023/05/19 02:27:26;;;;;;;5.35;2.53;;;;;;;;;;581744;24;970;-74
2023/05/19 02:27:56;;;;;;;5.85;2.60;;;;;;;;;;586523;24;1528;-74
2023/05/19 02:28:17;;;;;;;5.85;2.28;;;;;;;;;;582318;24;1290;-75
2023/05/19 02:28:48;;;;;;;4.55;2.08;;;;;;;;;;583784;24;1064;-74
2023/05/19 02:29:15;;;;;;;6.70;2.30;;;;;;;;;;582116;24;1319;-73
2023/05/19 02:29:40;;;;;;;6.50;2.50;;;;;;;;;;582498;24;1933;-74
2023/05/19 02:30:31;;;;;;;5.72;2.30;;;;;;;;;;587231;24;975;-74
2023/05/19 02:31:19;;;;;;;6.22;2.50;;;;;;;;;;585161;24;1336;-74
2023/05/19 02:32:03;;;;;;;5.53;2.22;;;;;;;;;;582072;24;1520;-75
2023/05/19 02:32:28;;;;;;;4.95;2.10;;;;;;;;;;576769;24;1173;-74
2023/05/19 02:32:50;;;;;;;5.63;2.22;;;;;;;;;;582421;24;1026;-74
2023/05/19 02:33:32;;;;;;;4.75;2.08;;;;;;;;;;581268;24;1373;-74
2023/05/19 02:33:51;;;;;;;5.70;2.10;;;;;;;;;;585168;24;1132;-74
2023/05/19 02:34:22;;;;;;;4.88;2.08;;;;;;;;;;583008;24;1541;-74
2023/05/19 02:34:52;;;;;;;5.68;2.38;;;;;;;;;;590828;24;1349;-74
2023/05/19 02:35:40;;;;;;;6.72;2.42;;;;;;;;;;592616;24;1185;-75
2023/05/19 02:36:03;;;;;;;4.70;1.98;;;;;;;;;;587608;24;1421;-74
2023/05/19 02:36:21;;;;;;;5.82;2.30;;;;;;;;;;596699;24;1176;-75
2023/05/19 02:36:44;;;;;;;6.13;2.33;;;;;;;;;;595447;24;1130;-74
2023/05/19 02:37:29;;;;;;;5.53;2.38;;;;;;;;;;597120;24;859;-74
2023/05/19 02:37:48;;;;;;;5.82;2.10;;;;;;;;;;598261;24;834;-74
2023/05/19 02:38:27;;;;;;;5.78;2.30;;;;;;;;;;594303;24;1448;-75
2023/05/19 02:38:45;;;;;;;6.82;2.50;;;;;;;;;;597074;24;1038;-74
2023/05/19 02:39:33;;;;;;;6.00;2.40;;;;;;;;;;598700;24;1156;-75
2023/05/19 02:40:16;;;;;;;8.07;2.70;;;;;;;;;;595878;24;1736;-74
2023/05/19 02:40:37;;;;;;;6.13;2.40;;;;;;;;;;594543;24;1476;-74
2023/05/19 02:40:53;;;;;;;5.35;2.30;;;;;;;;;;592534;24;1158;-75
2023/05/19 02:41:09;;;;;;;5.97;2.40;;;;;;;;;;591889;24;1289;-75
2023/05/19 02:41:28;;;;;;;5.18;2.40;;;;;;;;;;590957;24;1352;-75
2023/05/19 02:42:19;;;;;;;4.93;2.30;;;;;;;;;;594823;24;1136;-75
2023/05/19 02:43:34;;;;;;;5.05;2.17;;;;;;;;;;596327;24;1248;-74
2023/05/19 02:44:16;;;;;;;5.35;2.40;;;;;;;;;;594235;24;1409;-75
2023/05/19 02:44:54;;;;;;;4.78;2.20;;;;;;;;;;579070;24;1210;-75
2023/05/19 02:45:37;;;;;;;4.78;2.10;;;;;;;;;;575353;25;1182;-75
2023/05/19 02:46:02;;;;;;;5.95;2.33;;;;;;;;;;580690;24;1165;-74
2023/05/19 02:46:24;;;;;;;5.43;2.30;;;;;;;;;;573651;24;1294;-75
2023/05/19 02:46:45;;;;;;;5.57;2.25;;;;;;;;;;583345;25;1343;-74
2023/05/19 02:47:27;;;;;;;6.82;2.30;;;;;;;;;;579482;24;1458;-74
2023/05/19 02:47:55;;;;;;;4.70;2.28;;;;;;;;;;580014;24;1456;-75
2023/05/19 02:48:31;;;;;;;5.70;2.22;;;;;;;;;;574966;25;1479;-75
2023/05/19 02:48:51;;;;;;;5.15;2.20;;;;;;;;;;585529;25;1654;-75
2023/05/19 02:49:10;;;;;;;5.32;2.00;;;;;;;;;;582159;25;963;-75
2023/05/19 02:49:29;;;;;;;6.10;2.20;;;;;;;;;;580039;25;831;-75
2023/05/19 02:49:51;;;;;;;4.60;2.15;;;;;;;;;;585979;24;1350;-75
2023/05/19 02:50:45;;;;;;;5.40;2.30;;;;;;;;;;582481;24;878;-75
2023/05/19 02:51:21;;;;;;;5.55;2.28;;;;;;;;;;587002;24;893;-75
2023/05/19 02:51:37;;;;;;;6.53;2.35;;;;;;;;;;588357;24;2084;-75
2023/05/19 02:51:58;;;;;;;5.50;2.30;;;;;;;;;;588823;24;969;-76
2023/05/19 02:52:23;;;;;;;6.38;2.10;;;;;;;;;;580087;24;882;-75
2023/05/19 02:52:38;;;;;;;6.75;2.30;;;;;;;;;;579999;25;1420;-75
2023/05/19 02:53:15;;;;;;;6.47;2.30;;;;;;;;;;583979;25;1237;-75
2023/05/19 02:53:31;;;;;;;4.88;2.28;;;;;;;;;;583953;25;1089;-75
2023/05/19 02:53:47;;;;;;;6.93;2.50;;;;;;;;;;584324;25;1065;-75
2023/05/19 02:54:15;;;;;;;6.70;2.47;;;;;;;;;;583035;25;1422;-75
2023/05/19 02:54:51;;;;;;;5.28;2.35;;;;;;;;;;585250;25;1091;-75
2023/05/19 02:55:22;;;;;;;4.93;1.90;;;;;;;;;;584547;24;1080;-75
2023/05/19 02:55:38;;;;;;;5.00;2.10;;;;;;;;;;586130;24;1182;-74
2023/05/19 02:56:13;;;;;;;4.45;2.00;;;;;;;;;;587418;24;1254;-74
2023/05/19 02:56:58;;;;;;;6.80;2.30;;;;;;;;;;587325;24;953;-75
2023/05/19 02:57:14;;;;;;;4.47;1.92;;;;;;;;;;581425;24;819;-74
2023/05/19 02:57:41;;;;;;;5.18;1.90;;;;;;;;;;583667;24;1132;-74
2023/05/19 02:58:09;;;;;;;6.03;2.10;;;;;;;;;;595113;24;846;-74
2023/05/19 02:58:48;;;;;;;5.40;1.90;;;;;;;;;;593419;24;791;-75
2023/05/19 02:59:14;;;;;;;4.60;2.13;;;;;;;;;;591086;24;1193;-74
2023/05/19 02:59:30;;;;;;;5.35;2.20;;;;;;;;;;593837;24;1257;-74
2023/05/19 02:59:55;;;;;;;4.93;1.90;;;;;;;;;;590200;24;957;-74
2023/05/19 03:00:14;;;;;;;6.10;2.17;;;;;;;;;;585569;24;1426;-74
2023/05/19 03:00:32;;;;;;;5.55;2.30;;;;;;;;;;592163;24;885;-74
2023/05/19 03:00:51;;;;;;;5.07;2.15;;;;;;;;;;586437;24;1316;-74
2023/05/19 03:01:21;;;;;;;4.07;1.80;;;;;;;;;;584817;24;1443;-75
2023/05/19 03:01:40;;;;;;;5.65;2.08;;;;;;;;;;588711;24;874;-74
2023/05/19 03:01:59;;;;;;;5.97;2.10;;;;;;;;;;589362;24;822;-74
2023/05/19 03:02:15;;;;;;;6.53;1.90;;;;;;;;;;585326;24;996;-73
2023/05/19 03:02:57;;;;;;;6.57;2.10;;;;;;;;;;583010;24;1131;-74
2023/05/19 03:03:19;;;;;;;3.38;1.75;;;;;;;;;;588607;24;1291;-74
2023/05/19 03:03:47;;;;;;;4.00;1.83;;;;;;;;;;598756;24;1900;-75
2023/05/19 03:04:18;;;;;;;6.68;2.00;;;;;;;;;;596995;24;1278;-75
2023/05/19 03:04:40;;;;;;;4.82;1.92;;;;;;;;;;594778;24;2022;-74
2023/05/19 03:04:56;;;;;;;5.18;2.17;;;;;;;;;;594199;24;873;-74
2023/05/19 03:05:21;;;;;;;5.47;2.13;;;;;;;;;;581732;24;1288;-75
2023/05/19 03:05:40;;;;;;;5.00;2.00;;;;;;;;;;591296;24;1060;-73
2023/05/19 03:06:22;;;;;;;4.90;1.98;;;;;;;;;;589854;24;1222;-75
2023/05/19 03:06:53;;;;;;;4.85;2.10;;;;;;;;;;591788;24;948;-74
2023/05/19 03:07:49;;;;;;;5.93;2.10;;;;;;;;;;585380;24;1580;-72
2023/05/19 03:08:13;;;;;;;4.82;2.10;;;;;;;;;;595509;24;1558;-75
2023/05/19 03:08:39;;;;;;;4.78;2.13;;;;;;;;;;598681;24;934;-74
2023/05/19 03:09:01;;;;;;;5.78;2.08;;;;;;;;;;590691;24;1362;-75
2023/05/19 03:09:26;;;;;;;6.93;2.20;;;;;;;;;;583641;24;1549;-74
2023/05/19 03:09:54;;;;;;;5.05;2.20;;;;;;;;;;588876;24;1328;-74
2023/05/19 03:10:19;;;;;;;4.75;2.00;;;;;;;;;;589008;24;1028;-75
2023/05/19 03:10:38;;;;;;;6.38;2.28;;;;;;;;;;589922;24;846;-73
2023/05/19 03:11:14;;;;;;;3.95;2.10;;;;;;;;;;591695;24;862;-75
2023/05/19 03:11:41;;;;;;;5.10;2.20;;;;;;;;;;596853;24;1235;-74
2023/05/19 03:12:32;;;;;;;4.28;2.10;;;;;;;;;;595682;24;1130;-74
2023/05/19 03:12:56;;;;;;;4.03;2.05;;;;;;;;;;598903;24;1225;-75
2023/05/19 03:13:54;;;;;;;5.15;2.30;;;;;;;;;;592731;24;1208;-76
2023/05/19 03:14:37;;;;;;;6.88;2.25;;;;;;;;;;590401;24;1385;-74
2023/05/19 03:14:58;;;;;;;5.78;2.15;;;;;;;;;;589955;24;1414;-75
2023/05/19 03:15:30;;;;;;;6.45;2.15;;;;;;;;;;581652;24;1450;-75
2023/05/19 03:16:17;;;;;;;5.13;2.30;;;;;;;;;;589962;24;1122;-75
2023/05/19 03:16:34;;;;;;;6.47;2.38;;;;;;;;;;578458;24;1153;-75
2023/05/19 03:16:55;;;;;;;7.10;2.30;;;;;;;;;;587049;24;979;-74
2023/05/19 03:17:19;;;;;;;6.18;2.35;;;;;;;;;;580351;24;2163;-74
2023/05/19 03:17:47;;;;;;;6.10;2.30;;;;;;;;;;591126;24;937;-74
2023/05/19 03:18:16;;;;;;;5.30;2.20;;;;;;;;;;581583;24;1415;-74
2023/05/19 03:18:55;;;;;;;;;;;;;;;;;;;;;
2023/05/19 03:19:25;;;;;;;5.63;2.30;;;;;;;;;;580628;24;1200;-74
2023/05/19 03:20:04;;;;;;;4.63;2.00;;;;;;;;;;585452;24;1404;-74
2023/05/19 03:20:43;;;;;;;5.40;2.30;;;;;;;;;;583604;24;1247;-74
2023/05/19 03:21:57;;;;;;;5.07;2.30;;;;;;;;;;590391;24;1086;-73